Terminal Aerodrome Forecast
Issued by NWS

Home | Current Version | Previous Version | Graphics & Text | Print | Product List | Glossary On
Versions: 1 2 3 4 5 6 7 8 9 10 11 12 13 14 15
000
FTUS43 KIWX 281734
TAFSBN
TAF
KSBN 281734Z 2818/2918 10012KT P6SM OVC015
     FM290400 07005KT P6SM OVC008
      TEMPO 2909/2913 3SM -DZ BR OVC004
     FM291300 34006KT P6SM OVC012
     FM291600 36008KT P6SM BKN020=

USA.gov is the U.S. government's official web portal to all federal, state and local government web resources and services.